createdAt,value
2022-11-29T00:00:29.081Z,88.10
2022-11-29T00:02:55.830Z,88.07
2022-11-29T00:05:22.370Z,88.27
2022-11-29T00:07:49.474Z,88.35
2022-11-29T00:10:16.077Z,88.28
2022-11-29T00:12:42.511Z,88.36
2022-11-29T00:15:08.895Z,88.65
2022-11-29T00:17:36.198Z,88.23
2022-11-29T00:20:02.664Z,88.56
2022-11-29T00:22:29.307Z,88.33
2022-11-29T00:24:55.722Z,88.36
2022-11-29T00:27:22.142Z,88.37
2022-11-29T00:29:48.524Z,88.52
2022-11-29T00:32:14.934Z,88.39
2022-11-29T00:34:41.505Z,88.53
2022-11-29T00:37:08.087Z,88.48
2022-11-29T00:39:34.620Z,88.50
2022-11-29T00:42:01.129Z,88.49
2022-11-29T00:44:27.594Z,88.36
2022-11-29T00:46:54.198Z,88.23
2022-11-29T00:49:20.593Z,88.02
2022-11-29T00:51:47.461Z,87.96
2022-11-29T00:54:14.062Z,88.00
2022-11-29T00:56:40.553Z,88.12
2022-11-29T00:59:07.316Z,88.25
2022-11-29T01:01:33.759Z,88.03
2022-11-29T01:04:01.691Z,88.17
2022-11-29T01:06:28.454Z,88.03
2022-11-29T01:08:54.894Z,87.83
2022-11-29T01:11:24.157Z,87.74
2022-11-29T01:13:53.442Z,87.85
2022-11-29T01:16:20.055Z,87.81
2022-11-29T01:18:46.567Z,87.68
2022-11-29T01:21:16.805Z,87.64
2022-11-29T01:23:44.847Z,87.75
2022-11-29T01:26:20.142Z,87.45
2022-11-29T01:28:49.560Z,87.55
2022-11-29T01:31:22.375Z,87.69
2022-11-29T01:33:52.836Z,87.30
2022-11-29T01:36:19.298Z,87.46
2022-11-29T01:38:45.911Z,87.42
2022-11-29T01:41:19.545Z,87.24
2022-11-29T01:43:58.685Z,87.22
2022-11-29T01:46:25.787Z,87.38
2022-11-29T01:48:56.849Z,87.52
2022-11-29T01:51:24.468Z,87.58
2022-11-29T01:53:50.999Z,87.60
2022-11-29T01:56:17.546Z,87.55
2022-11-29T01:58:45.170Z,87.62
2022-11-29T02:01:12.028Z,87.62
2022-11-29T02:03:38.588Z,87.68
2022-11-29T02:06:06.621Z,87.67
2022-11-29T02:08:39.342Z,87.61
2022-11-29T02:11:20.977Z,87.61
2022-11-29T02:13:56.467Z,87.65
2022-11-29T02:16:38.465Z,87.53
2022-11-29T02:19:23.700Z,87.46
2022-11-29T02:22:10.311Z,87.35
2022-11-29T02:25:13.915Z,87.45
2022-11-29T02:28:11.163Z,87.51
2022-11-29T02:31:05.662Z,87.46
2022-11-29T02:34:06.400Z,87.68
2022-11-29T02:36:57.239Z,87.75
2022-11-29T02:39:29.849Z,87.90
2022-11-29T02:42:08.113Z,88.16
2022-11-29T02:44:59.122Z,87.85
2022-11-29T02:47:40.808Z,87.73
2022-11-29T02:50:07.400Z,87.73
2022-11-29T02:52:48.423Z,87.88
2022-11-29T02:55:29.457Z,87.91
2022-11-29T02:58:25.949Z,88.22
2022-11-29T03:01:25.855Z,88.03
2022-11-29T03:04:16.615Z,87.72
2022-11-29T03:07:01.352Z,88.15
2022-11-29T03:10:21.709Z,88.28
2022-11-29T03:12:51.391Z,88.43
2022-11-29T03:15:41.717Z,88.09
2022-11-29T03:18:39.761Z,88.12
2022-11-29T03:21:25.361Z,87.84
2022-11-29T03:23:57.358Z,87.89
2022-11-29T03:26:35.551Z,87.92
2022-11-29T03:29:28.343Z,87.52
2022-11-29T03:32:23.906Z,87.72
2022-11-29T03:35:10.122Z,87.73
2022-11-29T03:38:01.349Z,87.88
2022-11-29T03:40:52.410Z,87.75
2022-11-29T03:43:37.097Z,87.75
2022-11-29T03:46:10.171Z,87.79
2022-11-29T03:48:51.565Z,87.90
2022-11-29T03:51:46.700Z,88.18
2022-11-29T03:54:19.951Z,88.31
2022-11-29T03:56:46.941Z,88.30
2022-11-29T03:59:41.100Z,88.38
2022-11-29T04:02:29.535Z,88.48
2022-11-29T04:05:17.562Z,88.59
2022-11-29T04:08:21.844Z,88.70
2022-11-29T04:11:05.241Z,88.51
2022-11-29T04:14:02.744Z,88.31
2022-11-29T04:17:04.191Z,88.48
2022-11-29T04:19:55.830Z,88.63
2022-11-29T04:22:42.279Z,88.61
2022-11-29T04:25:48.076Z,88.39
2022-11-29T04:29:08.395Z,88.53
2022-11-29T04:32:11.774Z,88.69
2022-11-29T04:35:02.192Z,88.81
2022-11-29T04:37:55.086Z,88.94
2022-11-29T04:40:27.498Z,88.86
2022-11-29T04:43:00.486Z,89.15
2022-11-29T04:46:00.927Z,89.14
2022-11-29T04:49:15.217Z,89.22
2022-11-29T04:52:03.340Z,89.15
2022-11-29T04:54:47.441Z,89.35
2022-11-29T04:57:37.854Z,89.44
2022-11-29T05:00:10.716Z,89.36
2022-11-29T05:03:06.408Z,89.49
2022-11-29T05:05:59.003Z,89.42
2022-11-29T05:08:45.637Z,89.29
2022-11-29T05:11:30.939Z,89.49
2022-11-29T05:14:28.540Z,89.60
2022-11-29T05:17:12.352Z,89.48
2022-11-29T05:20:09.563Z,89.33
2022-11-29T05:23:13.882Z,89.31
2022-11-29T05:26:02.577Z,89.33
2022-11-29T05:28:38.172Z,89.37
2022-11-29T05:31:32.676Z,89.44
2022-11-29T05:34:17.244Z,89.46
2022-11-29T05:36:57.901Z,89.64
2022-11-29T05:39:41.109Z,89.43
2022-11-29T05:42:22.972Z,89.52
2022-11-29T05:45:24.562Z,89.38
2022-11-29T05:48:07.190Z,89.42
2022-11-29T05:50:40.040Z,89.42
2022-11-29T05:53:31.405Z,89.36
2022-11-29T05:56:40.639Z,89.31
2022-11-29T05:59:13.082Z,89.45
2022-11-29T06:01:48.827Z,89.06
2022-11-29T06:04:45.656Z,89.27
2022-11-29T06:07:20.647Z,89.11
2022-11-29T06:10:01.826Z,89.15
2022-11-29T06:12:31.826Z,89.07
2022-11-29T06:15:24.262Z,88.70
2022-11-29T06:18:24.954Z,88.74
2022-11-29T06:21:12.585Z,88.60
2022-11-29T06:24:06.171Z,88.45
2022-11-29T06:27:00.426Z,88.69
2022-11-29T06:30:07.345Z,88.43
2022-11-29T06:32:52.136Z,88.44
2022-11-29T06:35:27.878Z,88.41
2022-11-29T06:37:58.364Z,88.43
2022-11-29T06:40:25.271Z,88.34
2022-11-29T06:42:52.016Z,88.41
2022-11-29T06:45:18.869Z,88.38
2022-11-29T06:48:03.659Z,88.40
2022-11-29T06:50:58.257Z,88.43
2022-11-29T06:53:45.273Z,88.59
2022-11-29T06:56:34.123Z,88.48
2022-11-29T06:59:13.194Z,88.44
2022-11-29T07:01:59.831Z,88.54
2022-11-29T07:04:46.368Z,88.46
2022-11-29T07:07:18.480Z,88.35
2022-11-29T07:09:49.144Z,88.00
2022-11-29T07:12:17.058Z,87.91
2022-11-29T07:14:44.313Z,88.04
2022-11-29T07:17:48.929Z,87.98
2022-11-29T07:20:25.920Z,87.92
2022-11-29T07:23:08.652Z,87.87
2022-11-29T07:25:48.460Z,87.71
2022-11-29T07:28:48.515Z,87.86
2022-11-29T07:31:33.855Z,87.71
2022-11-29T07:34:38.015Z,87.91
2022-11-29T07:38:02.638Z,87.87
2022-11-29T07:40:38.196Z,87.84
2022-11-29T07:43:40.467Z,87.64
2022-11-29T07:46:06.852Z,87.68
2022-11-29T07:48:33.244Z,87.51
2022-11-29T07:51:00.740Z,87.79
2022-11-29T07:53:27.459Z,87.75
2022-11-29T07:55:54.012Z,87.68
2022-11-29T07:58:20.953Z,87.82
2022-11-29T08:00:47.456Z,87.71
2022-11-29T08:03:14.309Z,87.54
2022-11-29T08:05:46.295Z,87.53
2022-11-29T08:08:13.373Z,87.43
2022-11-29T08:10:39.789Z,87.40
2022-11-29T08:13:06.170Z,86.97
2022-11-29T08:15:32.605Z,87.12
2022-11-29T08:17:58.991Z,87.13
2022-11-29T08:20:25.405Z,87.09
2022-11-29T08:22:59.244Z,86.62
2022-11-29T08:25:27.117Z,86.91
2022-11-29T08:27:54.657Z,86.93
2022-11-29T08:30:22.320Z,86.55
2022-11-29T08:32:51.807Z,86.67
2022-11-29T08:35:20.094Z,86.98
2022-11-29T08:37:46.544Z,87.01
2022-11-29T08:40:13.715Z,86.81
2022-11-29T08:42:40.181Z,86.81
2022-11-29T08:45:07.465Z,86.94
2022-11-29T08:47:36.767Z,86.71
2022-11-29T08:50:07.730Z,86.65
2022-11-29T08:52:56.412Z,86.65
2022-11-29T08:55:26.376Z,86.52
2022-11-29T08:57:54.907Z,86.28
2022-11-29T09:00:21.410Z,86.19
2022-11-29T09:02:48.429Z,86.21
2022-11-29T09:05:15.735Z,86.19
2022-11-29T09:07:42.385Z,86.07
2022-11-29T09:10:10.329Z,86.10
2022-11-29T09:12:37.751Z,85.69
2022-11-29T09:15:09.468Z,86.11
2022-11-29T09:17:35.972Z,86.09
2022-11-29T09:20:03.191Z,86.17
2022-11-29T09:22:29.793Z,86.30
2022-11-29T09:24:56.259Z,85.98
2022-11-29T09:27:22.747Z,85.66
2022-11-29T09:29:49.104Z,85.80
2022-11-29T09:32:15.538Z,85.89
2022-11-29T09:34:42.319Z,86.22
2022-11-29T09:37:08.867Z,85.97
2022-11-29T09:39:35.292Z,86.01
2022-11-29T09:42:27.219Z,86.09
2022-11-29T09:44:59.737Z,85.86
2022-11-29T09:47:35.375Z,85.76
2022-11-29T09:50:21.247Z,86.04
2022-11-29T09:52:58.874Z,85.81
2022-11-29T09:55:28.232Z,85.90
2022-11-29T09:57:56.592Z,85.77
2022-11-29T10:00:23.367Z,85.58
2022-11-29T10:03:08.429Z,85.54
2022-11-29T10:05:44.329Z,85.70
2022-11-29T10:08:29.216Z,85.97
2022-11-29T10:11:09.672Z,86.44
2022-11-29T10:13:36.291Z,86.16
2022-11-29T10:16:28.496Z,86.42
2022-11-29T10:19:04.576Z,86.46
2022-11-29T10:21:36.598Z,86.07
2022-11-29T10:24:13.365Z,85.93
2022-11-29T10:26:39.827Z,86.02
2022-11-29T10:29:06.319Z,85.82
2022-11-29T10:31:36.877Z,86.03
2022-11-29T10:34:13.767Z,85.80
2022-11-29T10:36:50.284Z,84.93
2022-11-29T10:39:23.173Z,85.07
2022-11-29T10:41:55.214Z,85.13
2022-11-29T10:44:21.732Z,84.95
2022-11-29T10:46:48.226Z,85.34
2022-11-29T10:49:17.581Z,84.91
2022-11-29T10:51:45.995Z,84.11
2022-11-29T10:54:18.420Z,83.61
2022-11-29T10:56:45.612Z,83.34
2022-11-29T10:59:26.454Z,83.52
2022-11-29T11:01:53.889Z,83.41
2022-11-29T11:04:30.473Z,83.12
2022-11-29T11:07:01.332Z,82.95
2022-11-29T11:09:46.988Z,82.36
2022-11-29T11:12:16.823Z,82.03
2022-11-29T11:14:45.246Z,82.46
2022-11-29T11:17:23.489Z,82.25
2022-11-29T11:19:57.700Z,82.16
2022-11-29T11:22:25.320Z,82.37
2022-11-29T11:25:01.940Z,82.46
2022-11-29T11:27:41.527Z,82.62
2022-11-29T11:30:22.476Z,82.99
2022-11-29T11:33:21.800Z,82.65
2022-11-29T11:36:00.720Z,82.50
2022-11-29T11:38:27.359Z,82.69
2022-11-29T11:41:15.311Z,83.03
2022-11-29T11:43:42.130Z,82.82
2022-11-29T11:46:09.344Z,82.80
2022-11-29T11:48:39.913Z,82.88
2022-11-29T11:51:21.249Z,82.96
2022-11-29T11:53:57.285Z,83.12
2022-11-29T11:56:24.459Z,83.10
2022-11-29T11:58:54.432Z,83.22
2022-11-29T12:01:24.424Z,82.96
2022-11-29T12:04:03.272Z,83.15
2022-11-29T12:06:55.546Z,82.71
2022-11-29T12:09:40.562Z,83.22
2022-11-29T12:12:20.118Z,82.91
2022-11-29T12:15:02.319Z,82.19
2022-11-29T12:17:40.136Z,82.43
2022-11-29T12:20:20.611Z,82.42
2022-11-29T12:23:11.214Z,82.02
2022-11-29T12:25:59.512Z,81.88
2022-11-29T12:28:33.648Z,81.76
2022-11-29T12:31:06.288Z,81.63
2022-11-29T12:33:35.691Z,81.62
2022-11-29T12:36:20.793Z,82.03
2022-11-29T12:39:19.816Z,82.03
2022-11-29T12:41:54.216Z,82.06
2022-11-29T12:44:39.042Z,81.91
2022-11-29T12:47:35.054Z,81.51
2022-11-29T12:50:32.472Z,81.67
2022-11-29T12:53:26.758Z,81.58
2022-11-29T12:56:00.285Z,82.17
2022-11-29T12:58:46.297Z,81.74
2022-11-29T13:01:35.936Z,81.88
2022-11-29T13:04:14.985Z,81.84
2022-11-29T13:06:55.001Z,81.31
2022-11-29T13:09:21.341Z,81.12
2022-11-29T13:12:05.162Z,81.51
2022-11-29T13:14:44.464Z,81.65
2022-11-29T13:17:30.304Z,81.40
2022-11-29T13:20:04.073Z,81.59
2022-11-29T13:22:48.284Z,82.13
2022-11-29T13:25:26.934Z,82.12
2022-11-29T13:28:05.187Z,82.38
2022-11-29T13:30:34.779Z,82.02
2022-11-29T13:33:18.595Z,82.29
2022-11-29T13:36:01.197Z,82.31
2022-11-29T13:38:53.783Z,82.52
2022-11-29T13:41:32.139Z,82.59
2022-11-29T13:44:11.803Z,83.03
2022-11-29T13:47:06.695Z,83.00
2022-11-29T13:49:52.872Z,83.42
2022-11-29T13:52:41.539Z,83.51
2022-11-29T13:55:09.965Z,83.41
2022-11-29T13:58:16.269Z,83.75
2022-11-29T14:00:43.924Z,83.85
2022-11-29T14:03:28.821Z,83.96
2022-11-29T14:06:21.854Z,83.79
2022-11-29T14:12:17.074Z,84.25
2022-11-29T14:14:54.542Z,83.92
2022-11-29T14:17:46.636Z,84.17
2022-11-29T14:20:25.388Z,84.52
2022-11-29T14:23:07.434Z,84.53
2022-11-29T14:25:51.155Z,84.48
2022-11-29T14:28:21.616Z,84.41
2022-11-29T14:31:02.373Z,84.69
2022-11-29T14:33:54.821Z,85.04
2022-11-29T14:36:31.158Z,85.06
2022-11-29T14:39:20.522Z,84.82
2022-11-29T14:42:18.489Z,84.83
2022-11-29T14:44:54.381Z,85.04
2022-11-29T14:47:37.178Z,84.99
2022-11-29T14:50:09.189Z,85.15
2022-11-29T14:52:40.702Z,85.38
2022-11-29T14:55:27.210Z,85.68
2022-11-29T14:58:01.056Z,85.64
2022-11-29T15:00:28.663Z,85.57
2022-11-29T15:03:01.230Z,85.78
2022-11-29T15:05:35.398Z,85.99
2022-11-29T15:08:20.269Z,85.77
2022-11-29T15:10:51.393Z,85.81
2022-11-29T15:13:26.394Z,85.93
2022-11-29T15:16:01.826Z,86.13
2022-11-29T15:19:04.783Z,86.66
2022-11-29T15:21:34.052Z,86.65
2022-11-29T15:24:12.802Z,86.55
2022-11-29T15:26:53.771Z,86.70
2022-11-29T15:29:21.436Z,86.68
2022-11-29T15:31:57.044Z,86.65
2022-11-29T15:34:31.464Z,86.83
2022-11-29T15:36:59.177Z,86.87
2022-11-29T15:39:37.146Z,87.14
2022-11-29T15:42:10.117Z,87.00
2022-11-29T15:44:36.574Z,87.07
2022-11-29T15:47:24.142Z,86.87
2022-11-29T15:49:52.052Z,87.42
2022-11-29T15:52:31.817Z,87.04
2022-11-29T15:55:03.322Z,87.17
2022-11-29T15:57:47.230Z,87.26
2022-11-29T16:00:20.353Z,86.87
2022-11-29T16:02:52.232Z,86.78
2022-11-29T16:05:35.517Z,87.23
2022-11-29T16:08:06.978Z,87.45
2022-11-29T16:10:43.539Z,87.60
2022-11-29T16:13:25.337Z,87.54
2022-11-29T16:16:05.995Z,87.92
2022-11-29T16:18:32.819Z,87.74
2022-11-29T16:21:01.120Z,87.77
2022-11-29T16:23:42.121Z,87.76
2022-11-29T16:26:15.675Z,87.88
2022-11-29T16:28:45.789Z,88.07
2022-11-29T16:31:20.572Z,87.96
2022-11-29T16:33:50.216Z,88.22
2022-11-29T16:36:23.980Z,88.36
2022-11-29T16:39:04.277Z,88.37
2022-11-29T16:41:38.817Z,88.32
2022-11-29T16:44:07.267Z,88.66
2022-11-29T16:46:38.938Z,88.65
2022-11-29T16:49:33.613Z,88.71
2022-11-29T16:52:00.838Z,88.62
2022-11-29T16:54:34.000Z,88.78
2022-11-29T16:57:05.350Z,88.46
2022-11-29T16:59:32.526Z,88.63
2022-11-29T17:01:59.502Z,88.70
2022-11-29T17:04:26.549Z,88.99
2022-11-29T17:06:55.485Z,88.85
2022-11-29T17:09:27.715Z,88.83
2022-11-29T17:11:55.671Z,88.97
2022-11-29T17:14:22.232Z,88.81
2022-11-29T17:16:49.767Z,88.82
2022-11-29T17:19:16.675Z,89.18
2022-11-29T17:21:43.549Z,89.32
2022-11-29T17:24:13.385Z,89.27
2022-11-29T17:26:40.649Z,89.24
2022-11-29T17:29:07.388Z,89.49
2022-11-29T17:31:33.932Z,89.31
2022-11-29T17:34:01.154Z,89.51
2022-11-29T17:36:27.961Z,89.68
2022-11-29T17:38:54.630Z,89.79
2022-11-29T17:41:23.458Z,89.59
2022-11-29T17:43:51.481Z,89.86
2022-11-29T17:46:23.476Z,89.93
2022-11-29T17:48:52.264Z,89.79
2022-11-29T17:51:50.516Z,89.88
2022-11-29T17:54:09.065Z,89.98
2022-11-29T17:56:35.571Z,89.86
2022-11-29T17:59:04.106Z,89.78
2022-11-29T18:01:36.000Z,90.09
2022-11-29T18:04:05.237Z,90.08
2022-11-29T18:06:37.148Z,90.26
2022-11-29T18:09:04.799Z,90.06
2022-11-29T18:11:46.893Z,90.54
2022-11-29T18:14:18.397Z,90.36
2022-11-29T18:16:45.527Z,90.46
2022-11-29T18:19:15.749Z,90.40
2022-11-29T18:21:42.626Z,90.67
2022-11-29T18:24:09.665Z,90.89
2022-11-29T18:26:37.071Z,90.98
2022-11-29T18:29:04.558Z,90.76
2022-11-29T18:31:33.803Z,91.11
2022-11-29T18:34:03.123Z,91.10
2022-11-29T18:36:33.162Z,91.08
2022-11-29T18:39:04.453Z,91.06
2022-11-29T18:41:31.538Z,91.36
2022-11-29T18:44:07.050Z,91.21
2022-11-29T18:46:35.710Z,91.26
2022-11-29T18:49:05.002Z,91.30
2022-11-29T18:51:32.704Z,91.45
2022-11-29T18:53:59.263Z,91.37
2022-11-29T18:56:30.754Z,91.50
2022-11-29T18:59:12.335Z,91.71
2022-11-29T19:01:43.377Z,91.68
2022-11-29T19:04:15.707Z,91.85
2022-11-29T19:06:42.921Z,91.62
2022-11-29T19:09:21.631Z,91.71
2022-11-29T19:11:49.591Z,91.94
2022-11-29T19:14:16.142Z,92.00
2022-11-29T19:16:44.802Z,92.00
2022-11-29T19:19:11.622Z,92.12
2022-11-29T19:21:39.880Z,92.18
2022-11-29T19:24:13.760Z,92.12
2022-11-29T19:26:41.637Z,92.17
2022-11-29T19:29:08.443Z,92.36
2022-11-29T19:31:34.878Z,92.27
2022-11-29T19:34:01.354Z,92.57
2022-11-29T19:36:30.287Z,92.57
2022-11-29T19:38:59.678Z,92.67
2022-11-29T19:41:28.878Z,92.94
2022-11-29T19:44:01.333Z,92.88
2022-11-29T19:46:30.295Z,92.76
2022-11-29T19:48:57.758Z,93.00
2022-11-29T19:51:26.297Z,92.96
2022-11-29T19:53:54.690Z,93.07
2022-11-29T19:56:22.168Z,93.20
2022-11-29T19:58:49.006Z,93.21
2022-11-29T20:01:25.143Z,93.38
2022-11-29T20:03:52.348Z,93.63
2022-11-29T20:06:19.578Z,93.61
2022-11-29T20:08:46.378Z,93.72
2022-11-29T20:11:15.886Z,93.81
2022-11-29T20:13:45.165Z,93.93
2022-11-29T20:16:14.545Z,93.97
2022-11-29T20:18:47.255Z,94.08
2022-11-29T20:21:20.086Z,94.13
2022-11-29T20:23:46.624Z,94.30
2022-11-29T20:26:20.287Z,94.40
2022-11-29T20:28:47.536Z,94.42
2022-11-29T20:31:17.163Z,94.59
2022-11-29T20:33:45.669Z,94.70
2022-11-29T20:36:37.536Z,94.73
2022-11-29T20:39:23.628Z,94.91
2022-11-29T20:41:52.982Z,94.84
2022-11-29T20:44:44.144Z,95.02
2022-11-29T20:47:22.202Z,95.07
2022-11-29T20:49:49.146Z,95.30
2022-11-29T20:52:46.656Z,95.33
2022-11-29T20:55:13.117Z,95.31
2022-11-29T20:57:39.517Z,95.56
2022-11-29T21:00:09.104Z,95.50
2022-11-29T21:02:35.505Z,95.70
2022-11-29T21:05:01.955Z,95.59
2022-11-29T21:07:29.200Z,95.75
2022-11-29T21:10:00.943Z,95.91
2022-11-29T21:12:29.021Z,96.02
2022-11-29T21:14:55.788Z,96.19
2022-11-29T21:17:22.521Z,96.51
2022-11-29T21:19:49.189Z,96.40
2022-11-29T21:22:42.193Z,96.40
2022-11-29T21:25:14.900Z,96.48
2022-11-29T21:27:41.757Z,96.46
2022-11-29T21:30:17.453Z,96.60
2022-11-29T21:32:44.221Z,96.32
2022-11-29T21:35:10.614Z,96.50
2022-11-29T21:37:37.598Z,96.65
2022-11-29T21:40:04.679Z,96.51
2022-11-29T21:42:31.149Z,96.60
2022-11-29T21:44:57.618Z,96.54
2022-11-29T21:47:24.122Z,96.62
2022-11-29T21:49:52.706Z,96.77
2022-11-29T21:52:22.602Z,96.78
2022-11-29T21:54:49.950Z,96.94
2022-11-29T21:57:16.368Z,96.91
2022-11-29T21:59:42.823Z,96.71
2022-11-29T22:02:09.483Z,96.80
2022-11-29T22:04:36.028Z,96.84
2022-11-29T22:07:02.413Z,96.79
2022-11-29T22:09:28.927Z,96.77
2022-11-29T22:11:55.374Z,96.87
2022-11-29T22:14:21.800Z,96.75
2022-11-29T22:16:57.049Z,96.78
2022-11-29T22:19:28.728Z,96.72
2022-11-29T22:21:57.653Z,96.48
2022-11-29T22:24:26.339Z,96.65
2022-11-29T22:26:53.876Z,96.71
2022-11-29T22:29:21.228Z,96.55
2022-11-29T22:31:51.802Z,96.61
2022-11-29T22:34:19.373Z,96.52
2022-11-29T22:36:46.021Z,96.61
2022-11-29T22:39:12.940Z,96.77
2022-11-29T22:41:40.344Z,96.80
2022-11-29T22:44:07.282Z,96.74
2022-11-29T22:46:35.509Z,96.57
2022-11-29T22:49:03.220Z,96.62
2022-11-29T22:51:32.403Z,96.47
2022-11-29T22:54:05.210Z,96.48
2022-11-29T22:56:34.637Z,96.31
2022-11-29T22:59:01.149Z,96.49
2022-11-29T23:01:30.268Z,96.45
2022-11-29T23:03:59.096Z,96.47
2022-11-29T23:06:31.638Z,96.42
2022-11-29T23:09:02.968Z,96.21
2022-11-29T23:11:30.697Z,96.31
2022-11-29T23:13:57.402Z,96.23
2022-11-29T23:16:26.706Z,96.23
2022-11-29T23:18:54.518Z,96.10
2022-11-29T23:21:24.337Z,96.01
2022-11-29T23:23:56.097Z,96.21
2022-11-29T23:26:37.417Z,96.21
2022-11-29T23:29:05.564Z,96.14
2022-11-29T23:31:32.167Z,96.13
2022-11-29T23:33:58.941Z,96.09
2022-11-29T23:36:25.817Z,95.83
2022-11-29T23:38:52.424Z,95.56
2022-11-29T23:41:18.868Z,95.84
2022-11-29T23:43:45.288Z,95.86
2022-11-29T23:46:20.817Z,95.95
2022-11-29T23:48:47.645Z,95.75
2022-11-29T23:51:14.496Z,95.73
2022-11-29T23:53:41.909Z,95.76
2022-11-29T23:56:12.503Z,95.59
2022-11-29T23:58:39.551Z,95.45
